sensor_id;sensor_type;location;lat;lon;timestamp;pressure;altitude;pressure_sealevel;temperature;humidity
59859;BME280;45734;53.648;9.566;2024-03-08T00:02:02;53695.94;;;-145.06;100.00
59859;BME280;45734;53.648;9.566;2024-03-08T00:07:02;53700.00;;;-145.06;100.00
59859;BME280;45734;53.648;9.566;2024-03-08T00:12:03;53700.00;;;-145.06;100.00
59859;BME280;45734;53.648;9.566;2024-03-08T00:17:04;53649.38;;;-145.06;100.00
59859;BME280;45734;53.648;9.566;2024-03-08T00:22:04;53691.91;;;-145.06;100.00
59859;BME280;45734;53.648;9.566;2024-03-08T00:27:04;53649.38;;;-145.06;100.00
59859;BME280;45734;53.648;9.566;2024-03-08T00:32:06;53661.53;;;-145.06;100.00
59859;BME280;45734;53.648;9.566;2024-03-08T00:37:08;53659.50;;;-145.06;100.00
59859;BME280;45734;53.648;9.566;2024-03-08T00:42:08;53679.75;;;-145.06;100.00
59859;BME280;45734;53.648;9.566;2024-03-08T00:47:09;53665.56;;;-145.06;100.00
59859;BME280;45734;53.648;9.566;2024-03-08T00:52:09;53679.75;;;-145.06;100.00
59859;BME280;45734;53.648;9.566;2024-03-08T00:57:11;53706.06;;;-145.06;100.00
59859;BME280;45734;53.648;9.566;2024-03-08T01:02:11;53683.81;;;-145.06;100.00
59859;BME280;45734;53.648;9.566;2024-03-08T01:07:11;53710.13;;;-145.06;100.00
59859;BME280;45734;53.648;9.566;2024-03-08T01:12:12;53693.94;;;-145.06;100.00
59859;BME280;45734;53.648;9.566;2024-03-08T01:17:12;53724.31;;;-145.06;100.00
59859;BME280;45734;53.648;9.566;2024-03-08T01:22:13;53667.59;;;-145.06;100.00
59859;BME280;45734;53.648;9.566;2024-03-08T01:27:13;53657.47;;;-145.06;100.00
59859;BME280;45734;53.648;9.566;2024-03-08T01:32:13;53697.97;;;-145.06;100.00
59859;BME280;45734;53.648;9.566;2024-03-08T01:37:14;53659.50;;;-145.06;100.00
59859;BME280;45734;53.648;9.566;2024-03-08T01:42:15;53639.25;;;-145.06;100.00
59859;BME280;45734;53.648;9.566;2024-03-08T01:47:17;53657.47;;;-145.06;100.00
59859;BME280;45734;53.648;9.566;2024-03-08T01:52:18;53629.13;;;-145.06;100.00
59859;BME280;45734;53.648;9.566;2024-03-08T01:57:21;53578.50;;;-145.06;100.00
59859;BME280;45734;53.648;9.566;2024-03-08T02:02:21;53621.03;;;-145.06;100.00
59859;BME280;45734;53.648;9.566;2024-03-08T02:07:22;53621.03;;;-145.06;100.00
59859;BME280;45734;53.648;9.566;2024-03-08T02:12:22;53612.94;;;-145.06;100.00
59859;BME280;45734;53.648;9.566;2024-03-08T02:17:22;53592.69;;;-145.06;100.00
59859;BME280;45734;53.648;9.566;2024-03-08T02:22:23;53592.69;;;-145.06;100.00
59859;BME280;45734;53.648;9.566;2024-03-08T02:27:24;53574.44;;;-145.06;100.00
59859;BME280;45734;53.648;9.566;2024-03-08T02:32:25;53598.75;;;-145.06;100.00
59859;BME280;45734;53.648;9.566;2024-03-08T02:37:26;53586.59;;;-145.06;100.00
59859;BME280;45734;53.648;9.566;2024-03-08T02:42:28;53612.94;;;-145.06;100.00
59859;BME280;45734;53.648;9.566;2024-03-08T02:47:28;53633.19;;;-145.06;100.00
59859;BME280;45734;53.648;9.566;2024-03-08T02:52:31;53635.19;;;-145.06;100.00
59859;BME280;45734;53.648;9.566;2024-03-08T02:57:31;53612.94;;;-145.06;100.00
59859;BME280;45734;53.648;9.566;2024-03-08T03:02:33;53625.06;;;-145.06;100.00
59859;BME280;45734;53.648;9.566;2024-03-08T03:07:33;53667.59;;;-145.06;100.00
59859;BME280;45734;53.648;9.566;2024-03-08T03:12:33;53665.56;;;-145.06;100.00
59859;BME280;45734;53.648;9.566;2024-03-08T03:17:34;53665.56;;;-145.06;100.00
59859;BME280;45734;53.648;9.566;2024-03-08T03:22:34;53702.03;;;-145.06;100.00
59859;BME280;45734;53.648;9.566;2024-03-08T03:27:35;53671.66;;;-145.06;100.00
59859;BME280;45734;53.648;9.566;2024-03-08T03:32:35;53673.69;;;-145.06;100.00
59859;BME280;45734;53.648;9.566;2024-03-08T03:37:47;53633.19;;;-145.06;100.00
59859;BME280;45734;53.648;9.566;2024-03-08T03:43:06;53635.19;;;-145.06;100.00
59859;BME280;45734;53.648;9.566;2024-03-08T03:48:07;53631.16;;;-145.06;100.00
59859;BME280;45734;53.648;9.566;2024-03-08T03:53:11;53627.09;;;-145.06;100.00
59859;BME280;45734;53.648;9.566;2024-03-08T03:58:11;53653.44;;;-145.06;100.00
59859;BME280;45734;53.648;9.566;2024-03-08T04:03:11;53649.38;;;-145.06;100.00
59859;BME280;45734;53.648;9.566;2024-03-08T04:08:12;53647.34;;;-145.06;100.00
59859;BME280;45734;53.648;9.566;2024-03-08T04:13:12;53627.09;;;-145.06;100.00
59859;BME280;45734;53.648;9.566;2024-03-08T04:18:12;53616.97;;;-145.06;100.00
59859;BME280;45734;53.648;9.566;2024-03-08T04:23:14;53619.00;;;-145.06;100.00
59859;BME280;45734;53.648;9.566;2024-03-08T04:28:14;53655.44;;;-145.06;100.00
59859;BME280;45734;53.648;9.566;2024-03-08T04:33:14;53669.63;;;-145.06;100.00
59859;BME280;45734;53.648;9.566;2024-03-08T04:38:16;53675.69;;;-145.06;100.00
59859;BME280;45734;53.648;9.566;2024-03-08T04:43:17;53673.69;;;-145.06;100.00
59859;BME280;45734;53.648;9.566;2024-03-08T04:48:19;53635.19;;;-145.06;100.00
59859;BME280;45734;53.648;9.566;2024-03-08T04:53:20;53702.03;;;-145.06;100.00
59859;BME280;45734;53.648;9.566;2024-03-08T04:58:20;53693.94;;;-145.06;100.00
59859;BME280;45734;53.648;9.566;2024-03-08T05:03:21;53677.72;;;-145.06;100.00
59859;BME280;45734;53.648;9.566;2024-03-08T05:08:21;53716.19;;;-145.06;100.00
59859;BME280;45734;53.648;9.566;2024-03-08T05:13:21;53702.03;;;-145.06;100.00
59859;BME280;45734;53.648;9.566;2024-03-08T05:18:23;53704.06;;;-145.06;100.00
59859;BME280;45734;53.648;9.566;2024-03-08T05:23:23;53718.22;;;-145.06;100.00
59859;BME280;45734;53.648;9.566;2024-03-08T05:28:24;53665.56;;;-145.06;100.00
59859;BME280;45734;53.648;9.566;2024-03-08T05:33:24;53728.34;;;-145.06;100.00
59859;BME280;45734;53.648;9.566;2024-03-08T05:38:25;53691.91;;;-145.06;100.00
59859;BME280;45734;53.648;9.566;2024-03-08T05:43:25;53722.28;;;-145.06;100.00
59859;BME280;45734;53.648;9.566;2024-03-08T05:48:25;53677.72;;;-145.06;100.00
59859;BME280;45734;53.648;9.566;2024-03-08T05:53:25;53673.69;;;-145.06;100.00
59859;BME280;45734;53.648;9.566;2024-03-08T05:58:26;53685.81;;;-145.06;100.00
59859;BME280;45734;53.648;9.566;2024-03-08T06:03:27;53657.47;;;-145.06;100.00
59859;BME280;45734;53.648;9.566;2024-03-08T06:08:27;53653.44;;;-145.06;100.00
59859;BME280;45734;53.648;9.566;2024-03-08T06:13:29;53572.44;;;-145.06;100.00
59859;BME280;45734;53.648;9.566;2024-03-08T06:18:31;53442.81;;;-145.06;100.00
59859;BME280;45734;53.648;9.566;2024-03-08T06:23:32;53347.66;;;-145.06;100.00
59859;BME280;45734;53.648;9.566;2024-03-08T06:28:33;53250.47;;;-145.06;100.00
59859;BME280;45734;53.648;9.566;2024-03-08T06:33:34;53238.31;;;-145.06;100.00
59859;BME280;45734;53.648;9.566;2024-03-08T06:38:35;53183.66;;;-145.06;100.00
59859;BME280;45734;53.648;9.566;2024-03-08T06:43:35;53191.75;;;-145.06;100.00
59859;BME280;45734;53.648;9.566;2024-03-08T06:48:36;53189.72;;;-145.06;100.00
59859;BME280;45734;53.648;9.566;2024-03-08T06:53:37;53161.38;;;-145.06;100.00
59859;BME280;45734;53.648;9.566;2024-03-08T06:58:38;53159.34;;;-145.06;100.00
59859;BME280;45734;53.648;9.566;2024-03-08T07:03:38;53120.88;;;-145.06;100.00
59859;BME280;45734;53.648;9.566;2024-03-08T07:08:43;53120.88;;;-145.06;100.00
59859;BME280;45734;53.648;9.566;2024-03-08T07:13:46;53094.56;;;-145.06;100.00
59859;BME280;45734;53.648;9.566;2024-03-08T07:18:46;53058.09;;;-145.06;96.73
59859;BME280;45734;53.648;9.566;2024-03-08T07:23:46;53066.22;;;-145.06;94.91
59859;BME280;45734;53.648;9.566;2024-03-08T07:28:53;53045.97;;;-145.06;93.96
59859;BME280;45734;53.648;9.566;2024-03-08T07:33:57;53045.97;;;-145.06;92.73
59859;BME280;45734;53.648;9.566;2024-03-08T07:38:58;53054.06;;;-145.06;91.38
59859;BME280;45734;53.648;9.566;2024-03-08T07:43:59;53037.88;;;-145.06;91.33
59859;BME280;45734;53.648;9.566;2024-03-08T07:49:03;53037.88;;;-145.06;88.47
59859;BME280;45734;53.648;9.566;2024-03-08T07:54:04;53062.16;;;-145.06;87.16
59859;BME280;45734;53.648;9.566;2024-03-08T07:59:04;53082.41;;;-145.06;85.91
59859;BME280;45734;53.648;9.566;2024-03-08T08:04:05;53056.09;;;-145.06;84.42
59859;BME280;45734;53.648;9.566;2024-03-08T08:09:05;53058.09;;;-145.06;83.43
59859;BME280;45734;53.648;9.566;2024-03-08T08:14:06;53135.06;;;-145.06;84.92
59859;BME280;45734;53.648;9.566;2024-03-08T08:19:09;53074.31;;;-145.06;84.06
59859;BME280;45734;53.648;9.566;2024-03-08T08:24:09;53104.69;;;-145.06;82.84
59859;BME280;45734;53.648;9.566;2024-03-08T08:29:11;53151.25;;;-145.06;82.70
59859;BME280;45734;53.648;9.566;2024-03-08T08:34:11;53167.44;;;-145.06;83.49
59859;BME280;45734;53.648;9.566;2024-03-08T08:39:11;53173.53;;;-145.06;83.77
59859;BME280;45734;53.648;9.566;2024-03-08T08:44:13;53135.06;;;-145.06;83.54
59859;BME280;45734;53.648;9.566;2024-03-08T08:49:15;53191.75;;;-145.06;82.79
59859;BME280;45734;53.648;9.566;2024-03-08T08:54:20;53149.22;;;-145.06;81.55
59859;BME280;45734;53.648;9.566;2024-03-08T08:59:22;53175.53;;;-145.06;80.85
59859;BME280;45734;53.648;9.566;2024-03-08T09:04:25;53201.88;;;-145.06;79.93
59859;BME280;45734;53.648;9.566;2024-03-08T09:09:25;53220.09;;;-145.06;80.55
59859;BME280;45734;53.648;9.566;2024-03-08T09:14:25;53218.06;;;-145.06;82.55
59859;BME280;45734;53.648;9.566;2024-03-08T09:19:26;53228.19;;;-145.06;83.09
59859;BME280;45734;53.648;9.566;2024-03-08T09:24:26;53244.38;;;-145.06;82.82
59859;BME280;45734;53.648;9.566;2024-03-08T09:29:26;53258.56;;;-145.06;83.12
59859;BME280;45734;53.648;9.566;2024-03-08T09:34:27;53272.75;;;-145.06;82.78
59859;BME280;45734;53.648;9.566;2024-03-08T09:39:27;53303.09;;;-145.06;83.32
59859;BME280;45734;53.648;9.566;2024-03-08T09:44:27;53290.97;;;-145.06;83.60
59859;BME280;45734;53.648;9.566;2024-03-08T09:49:29;53290.97;;;-145.06;82.05
59859;BME280;45734;53.648;9.566;2024-03-08T09:54:29;53256.53;;;-145.06;80.67
59859;BME280;45734;53.648;9.566;2024-03-08T09:59:30;53313.22;;;-145.06;73.07
59859;BME280;45734;53.648;9.566;2024-03-08T10:04:44;53349.69;;;-145.06;70.57
59859;BME280;45734;53.648;9.566;2024-03-08T10:09:47;53349.69;;;-145.06;69.31
59859;BME280;45734;53.648;9.566;2024-03-08T10:14:50;53378.03;;;-145.06;68.35
59859;BME280;45734;53.648;9.566;2024-03-08T10:19:51;53361.81;;;-145.06;67.98
59859;BME280;45734;53.648;9.566;2024-03-08T10:24:54;53392.19;;;-145.06;67.87
59859;BME280;45734;53.648;9.566;2024-03-08T10:29:55;53412.44;;;-145.06;71.06
59859;BME280;45734;53.648;9.566;2024-03-08T10:34:55;53434.72;;;-145.06;67.32
59859;BME280;45734;53.648;9.566;2024-03-08T10:40:02;53450.94;;;-145.06;67.75
59859;BME280;45734;53.648;9.566;2024-03-08T10:45:23;53452.94;;;-145.06;65.51
59859;BME280;45734;53.648;9.566;2024-03-08T10:50:28;53430.69;;;-145.06;64.91
59859;BME280;45734;53.648;9.566;2024-03-08T10:55:30;53442.81;;;-145.06;65.38
59859;BME280;45734;53.648;9.566;2024-03-08T11:00:35;53450.94;;;-145.06;60.68
59859;BME280;45734;53.648;9.566;2024-03-08T11:05:40;53521.81;;;-145.06;56.60
59859;BME280;45734;53.648;9.566;2024-03-08T11:10:51;53531.94;;;-145.06;55.51
59859;BME280;45734;53.648;9.566;2024-03-08T11:15:52;53529.91;;;-145.06;55.59
59859;BME280;45734;53.648;9.566;2024-03-08T11:20:56;53560.28;;;-145.06;55.39
59859;BME280;45734;53.648;9.566;2024-03-08T11:25:57;53572.44;;;-145.06;54.41
59859;BME280;45734;53.648;9.566;2024-03-08T11:36:10;53596.72;;;-145.06;54.41
59859;BME280;45734;53.648;9.566;2024-03-08T11:41:17;53614.94;;;-145.06;53.80
59859;BME280;45734;53.648;9.566;2024-03-08T11:46:19;53659.50;;;-145.06;51.62
59859;BME280;45734;53.648;9.566;2024-03-08T11:51:20;53631.16;;;-145.06;52.54
59859;BME280;45734;53.648;9.566;2024-03-08T11:56:20;53671.66;;;-145.06;52.02
59859;BME280;45734;53.648;9.566;2024-03-08T12:01:20;53683.81;;;-145.06;50.93
59859;BME280;45734;53.648;9.566;2024-03-08T12:06:21;53714.19;;;-145.06;50.94
59859;BME280;45734;53.648;9.566;2024-03-08T12:11:22;53687.84;;;-145.06;52.68
59859;BME280;45734;53.648;9.566;2024-03-08T12:16:25;53655.44;;;-145.06;53.24
59859;BME280;45734;53.648;9.566;2024-03-08T12:21:26;53714.19;;;-145.06;51.02
59859;BME280;45734;53.648;9.566;2024-03-08T12:26:29;53712.16;;;-145.06;52.20
59859;BME280;45734;53.648;9.566;2024-03-08T12:31:32;53681.78;;;-145.06;53.27
59859;BME280;45734;53.648;9.566;2024-03-08T12:36:33;53683.81;;;-145.06;51.99
59859;BME280;45734;53.648;9.566;2024-03-08T12:41:39;53675.69;;;-145.06;52.61
59859;BME280;45734;53.648;9.566;2024-03-08T12:46:40;53706.06;;;-145.06;51.11
59859;BME280;45734;53.648;9.566;2024-03-08T12:51:40;53752.66;;;-145.06;49.89
59859;BME280;45734;53.648;9.566;2024-03-08T12:56:41;53732.41;;;-145.06;52.33
59859;BME280;45734;53.648;9.566;2024-03-08T13:01:42;53718.22;;;-145.06;50.83
59859;BME280;45734;53.648;9.566;2024-03-08T13:06:42;53738.47;;;-145.06;50.77
59859;BME280;45734;53.648;9.566;2024-03-08T13:11:43;53732.41;;;-145.06;51.68
59859;BME280;45734;53.648;9.566;2024-03-08T13:16:43;53742.53;;;-145.06;51.61
59859;BME280;45734;53.648;9.566;2024-03-08T13:21:47;53789.09;;;-145.06;48.98
59859;BME280;45734;53.648;9.566;2024-03-08T13:26:51;53791.13;;;-145.06;48.79
59859;BME280;45734;53.648;9.566;2024-03-08T13:31:51;53778.97;;;-145.06;48.18
59859;BME280;45734;53.648;9.566;2024-03-08T13:36:53;53762.78;;;-145.06;49.45
59859;BME280;45734;53.648;9.566;2024-03-08T13:41:59;53809.34;;;-145.06;48.32
59859;BME280;45734;53.648;9.566;2024-03-08T13:47:00;53799.22;;;-145.06;49.02
59859;BME280;45734;53.648;9.566;2024-03-08T13:52:04;53797.22;;;-145.06;48.54
59859;BME280;45734;53.648;9.566;2024-03-08T13:57:05;53797.22;;;-145.06;48.43
59859;BME280;45734;53.648;9.566;2024-03-08T14:02:06;53776.94;;;-145.06;49.87
59859;BME280;45734;53.648;9.566;2024-03-08T14:07:06;53720.25;;;-145.06;51.38
59859;BME280;45734;53.648;9.566;2024-03-08T14:12:08;53736.44;;;-145.06;49.27
59859;BME280;45734;53.648;9.566;2024-03-08T14:17:09;53768.84;;;-145.06;50.66
59859;BME280;45734;53.648;9.566;2024-03-08T14:22:11;53774.94;;;-145.06;50.25
59859;BME280;45734;53.648;9.566;2024-03-08T14:27:14;53795.19;;;-145.06;49.05
59859;BME280;45734;53.648;9.566;2024-03-08T14:32:17;53766.81;;;-145.06;50.73
59859;BME280;45734;53.648;9.566;2024-03-08T14:37:19;53710.13;;;-145.06;53.06
59859;BME280;45734;53.648;9.566;2024-03-08T14:42:24;53807.31;;;-145.06;48.67
59859;BME280;45734;53.648;9.566;2024-03-08T14:47:25;53783.03;;;-145.06;47.91
59859;BME280;45734;53.648;9.566;2024-03-08T14:52:25;53807.31;;;-145.06;47.73
59859;BME280;45734;53.648;9.566;2024-03-08T14:57:28;53803.28;;;-145.06;48.95
59859;BME280;45734;53.648;9.566;2024-03-08T15:02:28;53831.63;;;-145.06;48.09
59859;BME280;45734;53.648;9.566;2024-03-08T15:07:29;53799.22;;;-145.06;50.22
59859;BME280;45734;53.648;9.566;2024-03-08T15:12:30;53831.63;;;-145.06;48.77
59859;BME280;45734;53.648;9.566;2024-03-08T15:17:31;53781.00;;;-145.06;50.91
59859;BME280;45734;53.648;9.566;2024-03-08T15:22:31;53805.31;;;-145.06;48.75
59859;BME280;45734;53.648;9.566;2024-03-08T15:27:31;53851.88;;;-145.06;49.53
59859;BME280;45734;53.648;9.566;2024-03-08T15:32:32;53811.38;;;-145.06;50.15
59859;BME280;45734;53.648;9.566;2024-03-08T15:37:32;53787.06;;;-145.06;51.67
59859;BME280;45734;53.648;9.566;2024-03-08T15:42:33;53783.03;;;-145.06;54.61
59859;BME280;45734;53.648;9.566;2024-03-08T15:47:34;53772.91;;;-145.06;53.78
59859;BME280;45734;53.648;9.566;2024-03-08T15:52:34;53758.72;;;-145.06;54.32
59859;BME280;45734;53.648;9.566;2024-03-08T15:57:34;53811.38;;;-145.06;55.10
59859;BME280;45734;53.648;9.566;2024-03-08T16:02:40;53801.25;;;-145.06;54.25
59859;BME280;45734;53.648;9.566;2024-03-08T16:07:41;53827.59;;;-145.06;52.70
59859;BME280;45734;53.648;9.566;2024-03-08T16:12:43;53833.66;;;-145.06;53.42
59859;BME280;45734;53.648;9.566;2024-03-08T16:17:43;53815.44;;;-145.06;55.22
59859;BME280;45734;53.648;9.566;2024-03-08T16:22:44;53847.84;;;-145.06;54.33
59859;BME280;45734;53.648;9.566;2024-03-08T16:27:48;53825.56;;;-145.06;56.43
59859;BME280;45734;53.648;9.566;2024-03-08T16:32:49;53843.78;;;-145.06;54.94
59859;BME280;45734;53.648;9.566;2024-03-08T16:37:52;53870.09;;;-145.06;54.25
59859;BME280;45734;53.648;9.566;2024-03-08T16:42:52;53853.91;;;-145.06;54.47
59859;BME280;45734;53.648;9.566;2024-03-08T16:47:53;53864.03;;;-145.06;55.87
59859;BME280;45734;53.648;9.566;2024-03-08T16:52:56;53853.91;;;-145.06;56.47
59859;BME280;45734;53.648;9.566;2024-03-08T16:57:57;53916.69;;;-145.06;55.93
59859;BME280;45734;53.648;9.566;2024-03-08T17:02:58;53896.44;;;-145.06;58.56
59859;BME280;45734;53.648;9.566;2024-03-08T17:08:01;53884.28;;;-145.06;57.92
59859;BME280;45734;53.648;9.566;2024-03-08T17:13:04;53874.16;;;-145.06;59.10
59859;BME280;45734;53.648;9.566;2024-03-08T17:18:05;53754.69;;;-145.06;83.50
59859;BME280;45734;53.648;9.566;2024-03-08T17:23:06;53718.22;;;-145.06;94.61
59859;BME280;45734;53.648;9.566;2024-03-08T17:28:07;53720.25;;;-145.06;97.82
59859;BME280;45734;53.648;9.566;2024-03-08T17:33:09;53738.47;;;-145.06;100.00
59859;BME280;45734;53.648;9.566;2024-03-08T17:38:10;53710.13;;;-145.06;100.00
59859;BME280;45734;53.648;9.566;2024-03-08T17:43:10;53665.56;;;-145.06;100.00
59859;BME280;45734;53.648;9.566;2024-03-08T17:48:11;53685.81;;;-145.06;100.00
59859;BME280;45734;53.648;9.566;2024-03-08T17:53:16;53649.38;;;-145.06;100.00
59859;BME280;45734;53.648;9.566;2024-03-08T17:58:18;53625.06;;;-145.06;100.00
59859;BME280;45734;53.648;9.566;2024-03-08T18:03:19;53612.94;;;-145.06;100.00
59859;BME280;45734;53.648;9.566;2024-03-08T18:08:27;53625.06;;;-145.06;100.00
59859;BME280;45734;53.648;9.566;2024-03-08T18:13:28;53552.19;;;-145.06;100.00
59859;BME280;45734;53.648;9.566;2024-03-08T18:18:30;53570.41;;;-145.06;100.00
59859;BME280;45734;53.648;9.566;2024-03-08T18:23:31;53570.41;;;-145.06;100.00
59859;BME280;45734;53.648;9.566;2024-03-08T18:28:32;53531.94;;;-145.06;100.00
59859;BME280;45734;53.648;9.566;2024-03-08T18:33:32;53491.44;;;-145.06;100.00
59859;BME280;45734;53.648;9.566;2024-03-08T18:38:32;53495.47;;;-145.06;100.00
59859;BME280;45734;53.648;9.566;2024-03-08T18:43:33;53481.31;;;-145.06;100.00
59859;BME280;45734;53.648;9.566;2024-03-08T18:48:34;53440.81;;;-145.06;100.00
59859;BME280;45734;53.648;9.566;2024-03-08T18:53:35;53422.56;;;-145.06;100.00
59859;BME280;45734;53.648;9.566;2024-03-08T18:58:41;53388.16;;;-145.06;100.00
59859;BME280;45734;53.648;9.566;2024-03-08T19:03:41;53369.94;;;-145.06;100.00
59859;BME280;45734;53.648;9.566;2024-03-08T19:08:42;53339.56;;;-145.06;100.00
59859;BME280;45734;53.648;9.566;2024-03-08T19:13:42;53359.81;;;-145.06;100.00
59859;BME280;45734;53.648;9.566;2024-03-08T19:18:43;53333.47;;;-145.06;100.00
59859;BME280;45734;53.648;9.566;2024-03-08T19:23:43;53333.47;;;-145.06;100.00
59859;BME280;45734;53.648;9.566;2024-03-08T19:28:44;53333.47;;;-145.06;100.00
59859;BME280;45734;53.648;9.566;2024-03-08T19:33:46;53307.16;;;-145.06;100.00
59859;BME280;45734;53.648;9.566;2024-03-08T19:38:49;53333.47;;;-145.06;100.00
59859;BME280;45734;53.648;9.566;2024-03-08T19:43:49;53288.94;;;-145.06;100.00
59859;BME280;45734;53.648;9.566;2024-03-08T19:48:50;53292.97;;;-145.06;100.00
59859;BME280;45734;53.648;9.566;2024-03-08T19:53:50;53278.81;;;-145.06;100.00
59859;BME280;45734;53.648;9.566;2024-03-08T19:58:50;53317.28;;;-145.06;100.00
59859;BME280;45734;53.648;9.566;2024-03-08T20:03:55;53327.41;;;-145.06;100.00
59859;BME280;45734;53.648;9.566;2024-03-08T20:08:56;53337.53;;;-145.06;100.00
59859;BME280;45734;53.648;9.566;2024-03-08T20:13:58;53325.38;;;-145.06;100.00
59859;BME280;45734;53.648;9.566;2024-03-08T20:18:59;53347.66;;;-145.06;100.00
59859;BME280;45734;53.648;9.566;2024-03-08T20:24:02;53359.81;;;-145.06;100.00
59859;BME280;45734;53.648;9.566;2024-03-08T20:29:02;53376.00;;;-145.06;100.00
59859;BME280;45734;53.648;9.566;2024-03-08T20:34:08;53376.00;;;-145.06;100.00
59859;BME280;45734;53.648;9.566;2024-03-08T20:39:09;53406.38;;;-145.06;100.00
59859;BME280;45734;53.648;9.566;2024-03-08T20:44:10;53422.56;;;-145.06;100.00
59859;BME280;45734;53.648;9.566;2024-03-08T20:49:10;53426.63;;;-145.06;100.00
59859;BME280;45734;53.648;9.566;2024-03-08T20:54:12;53461.06;;;-145.06;100.00
59859;BME280;45734;53.648;9.566;2024-03-08T20:59:15;53448.91;;;-145.06;100.00
59859;BME280;45734;53.648;9.566;2024-03-08T21:04:15;53450.94;;;-145.06;100.00
59859;BME280;45734;53.648;9.566;2024-03-08T21:09:17;53495.47;;;-145.06;100.00
59859;BME280;45734;53.648;9.566;2024-03-08T21:14:17;53511.69;;;-145.06;100.00
59859;BME280;45734;53.648;9.566;2024-03-08T21:19:18;53471.19;;;-145.06;100.00
59859;BME280;45734;53.648;9.566;2024-03-08T21:24:19;53501.56;;;-145.06;100.00
59859;BME280;45734;53.648;9.566;2024-03-08T21:29:20;53509.66;;;-145.06;100.00
59859;BME280;45734;53.648;9.566;2024-03-08T21:34:20;53517.75;;;-145.06;100.00
59859;BME280;45734;53.648;9.566;2024-03-08T21:39:21;53511.69;;;-145.06;100.00
59859;BME280;45734;53.648;9.566;2024-03-08T21:44:28;53519.78;;;-145.06;100.00
59859;BME280;45734;53.648;9.566;2024-03-08T21:49:29;53548.13;;;-145.06;100.00
59859;BME280;45734;53.648;9.566;2024-03-08T21:54:29;53564.31;;;-145.06;100.00
59859;BME280;45734;53.648;9.566;2024-03-08T21:59:30;53580.53;;;-145.06;100.00
59859;BME280;45734;53.648;9.566;2024-03-08T22:04:30;53590.66;;;-145.06;100.00
59859;BME280;45734;53.648;9.566;2024-03-08T22:09:31;53592.69;;;-145.06;100.00
59859;BME280;45734;53.648;9.566;2024-03-08T22:14:31;53564.31;;;-145.06;100.00
59859;BME280;45734;53.648;9.566;2024-03-08T22:19:33;53633.19;;;-145.06;100.00
59859;BME280;45734;53.648;9.566;2024-03-08T22:24:33;53596.72;;;-145.06;100.00
59859;BME280;45734;53.648;9.566;2024-03-08T22:29:34;53619.00;;;-145.06;100.00
59859;BME280;45734;53.648;9.566;2024-03-08T22:34:34;53633.19;;;-145.06;100.00
59859;BME280;45734;53.648;9.566;2024-03-08T22:39:35;53655.44;;;-145.06;100.00
59859;BME280;45734;53.648;9.566;2024-03-08T22:44:35;53659.50;;;-145.06;100.00
59859;BME280;45734;53.648;9.566;2024-03-08T22:49:36;53655.44;;;-145.06;100.00
59859;BME280;45734;53.648;9.566;2024-03-08T22:54:36;53681.78;;;-145.06;100.00
59859;BME280;45734;53.648;9.566;2024-03-08T22:59:36;53679.75;;;-145.06;100.00
59859;BME280;45734;53.648;9.566;2024-03-08T23:04:37;53685.81;;;-145.06;100.00
59859;BME280;45734;53.648;9.566;2024-03-08T23:09:37;53673.69;;;-145.06;100.00
59859;BME280;45734;53.648;9.566;2024-03-08T23:14:37;53665.56;;;-145.06;100.00
59859;BME280;45734;53.648;9.566;2024-03-08T23:19:38;53669.63;;;-145.06;100.00
59859;BME280;45734;53.648;9.566;2024-03-08T23:24:38;53712.16;;;-145.06;100.00
59859;BME280;45734;53.648;9.566;2024-03-08T23:29:38;53706.06;;;-145.06;100.00
59859;BME280;45734;53.648;9.566;2024-03-08T23:34:39;53710.13;;;-145.06;100.00
59859;BME280;45734;53.648;9.566;2024-03-08T23:39:39;53683.81;;;-145.06;100.00
59859;BME280;45734;53.648;9.566;2024-03-08T23:44:40;53693.94;;;-145.06;100.00
59859;BME280;45734;53.648;9.566;2024-03-08T23:49:40;53708.09;;;-145.06;100.00
59859;BME280;45734;53.648;9.566;2024-03-08T23:54:40;53708.09;;;-145.06;100.00
59859;BME280;45734;53.648;9.566;2024-03-08T23:59:40;53716.19;;;-145.06;99.53
